sensor_id;sensor_type;location;lat;lon;timestamp;temperature;humidity
20795;DHT22;28087;-33.874;151.240;2022-12-20T00:00:27;20.70;99.90
20795;DHT22;28087;-33.874;151.240;2022-12-20T00:03:04;20.80;99.90
20795;DHT22;28087;-33.874;151.240;2022-12-20T00:26:33;21.10;99.90
20795;DHT22;28087;-33.874;151.240;2022-12-20T00:29:11;21.30;99.90
20795;DHT22;28087;-33.874;151.240;2022-12-20T00:31:47;21.30;99.90
20795;DHT22;28087;-33.874;151.240;2022-12-20T00:34:24;21.20;99.90
20795;DHT22;28087;-33.874;151.240;2022-12-20T00:37:01;21.10;99.90
20795;DHT22;28087;-33.874;151.240;2022-12-20T00:39:40;21.00;99.90
20795;DHT22;28087;-33.874;151.240;2022-12-20T00:42:16;20.80;99.90
20795;DHT22;28087;-33.874;151.240;2022-12-20T00:44:54;20.70;99.90
20795;DHT22;28087;-33.874;151.240;2022-12-20T00:47:31;20.60;99.90
20795;DHT22;28087;-33.874;151.240;2022-12-20T00:50:08;20.50;99.90
20795;DHT22;28087;-33.874;151.240;2022-12-20T00:52:44;20.30;99.90
20795;DHT22;28087;-33.874;151.240;2022-12-20T00:55:20;20.10;99.90
20795;DHT22;28087;-33.874;151.240;2022-12-20T00:57:56;20.00;99.90
20795;DHT22;28087;-33.874;151.240;2022-12-20T01:00:35;19.80;99.90
20795;DHT22;28087;-33.874;151.240;2022-12-20T02:22:43;21.30;99.90
20795;DHT22;28087;-33.874;151.240;2022-12-20T02:25:42;21.40;99.90
20795;DHT22;28087;-33.874;151.240;2022-12-20T02:28:31;21.50;99.90
20795;DHT22;28087;-33.874;151.240;2022-12-20T02:31:15;21.50;99.90
20795;DHT22;28087;-33.874;151.240;2022-12-20T02:33:54;21.60;99.90
20795;DHT22;28087;-33.874;151.240;2022-12-20T02:41:49;21.50;99.90
20795;DHT22;28087;-33.874;151.240;2022-12-20T02:44:27;21.40;99.90
20795;DHT22;28087;-33.874;151.240;2022-12-20T03:21:32;21.10;99.90
20795;DHT22;28087;-33.874;151.240;2022-12-20T03:24:09;21.30;99.90
20795;DHT22;28087;-33.874;151.240;2022-12-20T03:26:48;21.30;99.90
20795;DHT22;28087;-33.874;151.240;2022-12-20T03:29:28;21.10;99.90
20795;DHT22;28087;-33.874;151.240;2022-12-20T03:32:05;21.10;99.90
20795;DHT22;28087;-33.874;151.240;2022-12-20T04:11:35;20.80;99.90
20795;DHT22;28087;-33.874;151.240;2022-12-20T04:14:16;20.90;99.90
20795;DHT22;28087;-33.874;151.240;2022-12-20T04:16:52;20.70;99.90
20795;DHT22;28087;-33.874;151.240;2022-12-20T04:19:30;20.70;99.90
20795;DHT22;28087;-33.874;151.240;2022-12-20T04:22:09;20.80;99.90
20795;DHT22;28087;-33.874;151.240;2022-12-20T04:24:52;20.70;99.90
20795;DHT22;28087;-33.874;151.240;2022-12-20T04:27:33;20.70;99.90
20795;DHT22;28087;-33.874;151.240;2022-12-20T04:30:11;20.70;99.90
20795;DHT22;28087;-33.874;151.240;2022-12-20T04:40:42;20.70;99.90
20795;DHT22;28087;-33.874;151.240;2022-12-20T04:43:18;20.50;99.90
20795;DHT22;28087;-33.874;151.240;2022-12-20T04:45:58;20.60;99.90
20795;DHT22;28087;-33.874;151.240;2022-12-20T04:48:35;20.60;99.90
20795;DHT22;28087;-33.874;151.240;2022-12-20T05:04:57;20.40;99.90
20795;DHT22;28087;-33.874;151.240;2022-12-20T05:07:40;20.40;99.90
20795;DHT22;28087;-33.874;151.240;2022-12-20T05:10:19;20.20;99.90
20795;DHT22;28087;-33.874;151.240;2022-12-20T06:12:54;19.90;99.90
20795;DHT22;28087;-33.874;151.240;2022-12-20T06:15:35;20.00;99.90
20795;DHT22;28087;-33.874;151.240;2022-12-20T06:18:12;19.90;99.90
20795;DHT22;28087;-33.874;151.240;2022-12-20T06:20:50;19.80;99.90
20795;DHT22;28087;-33.874;151.240;2022-12-20T06:57:49;19.90;99.90
20795;DHT22;28087;-33.874;151.240;2022-12-20T07:08:18;19.80;99.90
20795;DHT22;28087;-33.874;151.240;2022-12-20T07:18:49;19.70;99.90
20795;DHT22;28087;-33.874;151.240;2022-12-20T07:21:25;19.80;99.90
20795;DHT22;28087;-33.874;151.240;2022-12-20T07:24:01;19.70;99.90
20795;DHT22;28087;-33.874;151.240;2022-12-20T07:47:42;19.50;99.90
20795;DHT22;28087;-33.874;151.240;2022-12-20T07:50:22;19.60;99.90
20795;DHT22;28087;-33.874;151.240;2022-12-20T07:52:59;19.60;99.90
20795;DHT22;28087;-33.874;151.240;2022-12-20T07:55:37;19.60;99.90
20795;DHT22;28087;-33.874;151.240;2022-12-20T07:58:15;19.60;99.90
20795;DHT22;28087;-33.874;151.240;2022-12-20T08:00:52;19.60;99.90
20795;DHT22;28087;-33.874;151.240;2022-12-20T08:03:31;19.50;99.90
20795;DHT22;28087;-33.874;151.240;2022-12-20T08:06:12;19.50;99.90
20795;DHT22;28087;-33.874;151.240;2022-12-20T08:40:15;19.20;99.90
20795;DHT22;28087;-33.874;151.240;2022-12-20T08:45:36;19.10;99.90
20795;DHT22;28087;-33.874;151.240;2022-12-20T08:48:12;19.20;99.90
20795;DHT22;28087;-33.874;151.240;2022-12-20T08:50:55;19.20;99.90
20795;DHT22;28087;-33.874;151.240;2022-12-20T11:35:47;18.80;99.90
20795;DHT22;28087;-33.874;151.240;2022-12-20T11:38:36;18.90;99.90
20795;DHT22;28087;-33.874;151.240;2022-12-20T11:41:20;18.90;99.90
20795;DHT22;28087;-33.874;151.240;2022-12-20T11:44:08;18.80;99.90
20795;DHT22;28087;-33.874;151.240;2022-12-20T11:47:07;18.90;99.90
20795;DHT22;28087;-33.874;151.240;2022-12-20T11:50:12;18.90;99.90
20795;DHT22;28087;-33.874;151.240;2022-12-20T15:11:14;18.40;99.90
20795;DHT22;28087;-33.874;151.240;2022-12-20T15:13:53;18.50;99.90
20795;DHT22;28087;-33.874;151.240;2022-12-20T20:19:26;18.80;99.90
20795;DHT22;28087;-33.874;151.240;2022-12-20T20:22:02;18.90;99.90
20795;DHT22;28087;-33.874;151.240;2022-12-20T20:24:40;19.00;99.90
20795;DHT22;28087;-33.874;151.240;2022-12-20T20:27:16;19.00;99.90
20795;DHT22;28087;-33.874;151.240;2022-12-20T20:29:52;19.10;99.90
20795;DHT22;28087;-33.874;151.240;2022-12-20T20:32:29;19.10;99.90
20795;DHT22;28087;-33.874;151.240;2022-12-20T20:35:07;19.20;99.90
20795;DHT22;28087;-33.874;151.240;2022-12-20T20:37:43;19.30;99.90
20795;DHT22;28087;-33.874;151.240;2022-12-20T20:40:21;19.40;99.90
20795;DHT22;28087;-33.874;151.240;2022-12-20T20:42:57;19.40;99.90
20795;DHT22;28087;-33.874;151.240;2022-12-20T20:45:43;19.50;99.90
20795;DHT22;28087;-33.874;151.240;2022-12-20T20:51:49;19.70;99.90
20795;DHT22;28087;-33.874;151.240;2022-12-20T20:54:27;19.90;99.90
20795;DHT22;28087;-33.874;151.240;2022-12-20T20:57:05;20.00;99.90
20795;DHT22;28087;-33.874;151.240;2022-12-20T20:59:41;20.00;99.90
20795;DHT22;28087;-33.874;151.240;2022-12-20T21:02:17;19.90;99.90
20795;DHT22;28087;-33.874;151.240;2022-12-20T21:04:55;19.80;99.90
20795;DHT22;28087;-33.874;151.240;2022-12-20T21:07:55;19.70;99.90
20795;DHT22;28087;-33.874;151.240;2022-12-20T21:10:37;19.70;99.90
20795;DHT22;28087;-33.874;151.240;2022-12-20T21:13:23;19.70;99.90
20795;DHT22;28087;-33.874;151.240;2022-12-20T21:16:06;19.70;99.90
20795;DHT22;28087;-33.874;151.240;2022-12-20T21:18:58;19.60;99.90
20795;DHT22;28087;-33.874;151.240;2022-12-20T21:21:48;19.60;99.90
20795;DHT22;28087;-33.874;151.240;2022-12-20T21:24:25;19.60;99.90
20795;DHT22;28087;-33.874;151.240;2022-12-20T21:27:00;19.70;99.90
20795;DHT22;28087;-33.874;151.240;2022-12-20T21:29:38;19.80;99.90
20795;DHT22;28087;-33.874;151.240;2022-12-20T21:32:14;19.80;99.90
20795;DHT22;28087;-33.874;151.240;2022-12-20T21:34:50;19.80;99.90
20795;DHT22;28087;-33.874;151.240;2022-12-20T21:37:28;19.80;99.90
20795;DHT22;28087;-33.874;151.240;2022-12-20T21:40:06;19.80;99.90
20795;DHT22;28087;-33.874;151.240;2022-12-20T21:42:42;19.80;99.90
20795;DHT22;28087;-33.874;151.240;2022-12-20T21:45:23;19.80;99.90
20795;DHT22;28087;-33.874;151.240;2022-12-20T21:47:59;19.80;99.90
20795;DHT22;28087;-33.874;151.240;2022-12-20T21:50:35;19.70;99.90
20795;DHT22;28087;-33.874;151.240;2022-12-20T21:53:11;19.70;99.90
20795;DHT22;28087;-33.874;151.240;2022-12-20T21:55:54;19.80;99.90
20795;DHT22;28087;-33.874;151.240;2022-12-20T21:58:30;20.00;99.90
20795;DHT22;28087;-33.874;151.240;2022-12-20T22:01:08;20.10;99.90
20795;DHT22;28087;-33.874;151.240;2022-12-20T22:03:47;20.20;99.90
20795;DHT22;28087;-33.874;151.240;2022-12-20T22:06:23;20.30;99.90
20795;DHT22;28087;-33.874;151.240;2022-12-20T22:09:00;20.30;99.90
20795;DHT22;28087;-33.874;151.240;2022-12-20T22:11:38;20.30;99.90
20795;DHT22;28087;-33.874;151.240;2022-12-20T22:14:14;20.30;99.90
20795;DHT22;28087;-33.874;151.240;2022-12-20T22:16:52;20.30;99.90
20795;DHT22;28087;-33.874;151.240;2022-12-20T22:19:28;20.40;99.90
20795;DHT22;28087;-33.874;151.240;2022-12-20T22:22:05;20.50;99.90
20795;DHT22;28087;-33.874;151.240;2022-12-20T22:24:40;20.50;99.90
20795;DHT22;28087;-33.874;151.240;2022-12-20T22:27:17;20.60;99.90
20795;DHT22;28087;-33.874;151.240;2022-12-20T22:29:53;20.60;99.90
20795;DHT22;28087;-33.874;151.240;2022-12-20T22:32:31;20.60;99.90
20795;DHT22;28087;-33.874;151.240;2022-12-20T22:35:07;20.60;99.90
20795;DHT22;28087;-33.874;151.240;2022-12-20T22:37:52;20.70;99.90
20795;DHT22;28087;-33.874;151.240;2022-12-20T22:40:28;20.80;99.90
20795;DHT22;28087;-33.874;151.240;2022-12-20T22:43:05;20.70;99.90
20795;DHT22;28087;-33.874;151.240;2022-12-20T22:45:40;20.50;99.90
20795;DHT22;28087;-33.874;151.240;2022-12-20T22:48:18;20.40;99.90
20795;DHT22;28087;-33.874;151.240;2022-12-20T22:50:58;20.30;99.90
20795;DHT22;28087;-33.874;151.240;2022-12-20T22:53:35;20.20;99.90
20795;DHT22;28087;-33.874;151.240;2022-12-20T22:56:12;20.20;99.90
20795;DHT22;28087;-33.874;151.240;2022-12-20T22:58:49;20.10;99.90
20795;DHT22;28087;-33.874;151.240;2022-12-20T23:01:24;20.10;99.90
20795;DHT22;28087;-33.874;151.240;2022-12-20T23:04:02;20.10;99.90
20795;DHT22;28087;-33.874;151.240;2022-12-20T23:06:43;20.10;99.90
20795;DHT22;28087;-33.874;151.240;2022-12-20T23:09:19;20.20;99.90
20795;DHT22;28087;-33.874;151.240;2022-12-20T23:11:55;20.10;99.90
20795;DHT22;28087;-33.874;151.240;2022-12-20T23:14:47;20.10;99.90
20795;DHT22;28087;-33.874;151.240;2022-12-20T23:17:38;20.10;99.90
20795;DHT22;28087;-33.874;151.240;2022-12-20T23:23:08;20.10;99.90
20795;DHT22;28087;-33.874;151.240;2022-12-20T23:25:44;20.20;99.90
20795;DHT22;28087;-33.874;151.240;2022-12-20T23:28:20;20.30;99.90
20795;DHT22;28087;-33.874;151.240;2022-12-20T23:30:56;20.50;99.90
20795;DHT22;28087;-33.874;151.240;2022-12-20T23:33:32;20.80;99.90
20795;DHT22;28087;-33.874;151.240;2022-12-20T23:36:11;20.90;99.90
20795;DHT22;28087;-33.874;151.240;2022-12-20T23:38:46;20.80;99.90
20795;DHT22;28087;-33.874;151.240;2022-12-20T23:41:22;20.90;99.90
20795;DHT22;28087;-33.874;151.240;2022-12-20T23:43:58;21.00;99.90
20795;DHT22;28087;-33.874;151.240;2022-12-20T23:46:35;21.00;99.90
20795;DHT22;28087;-33.874;151.240;2022-12-20T23:49:11;21.00;99.90
20795;DHT22;28087;-33.874;151.240;2022-12-20T23:51:49;20.90;99.90
20795;DHT22;28087;-33.874;151.240;2022-12-20T23:54:24;20.90;99.90
20795;DHT22;28087;-33.874;151.240;2022-12-20T23:57:00;20.80;99.90
20795;DHT22;28087;-33.874;151.240;2022-12-20T23:59:35;20.90;99.90
